Time;durP1;ratioP1;P1;durP2;ratioP2;P2;SDS_P1;SDS_P2;PMS_P1;PMS_P2;Temp;Humidity;BMP_temperature;BMP_pressure;BME280_temperature;BME280_humidity;BME280_pressure;Samples;Min_cycle;Max_cycle;Signal;HPM_P1;HPM_P2
2023/10/15 00:03:43;;;;;;;7.45;3.00;;;;;;;17.33;66.39;99330.75;7758120;32;37395;-83
2023/10/15 00:08:00;;;;;;;4.80;2.00;;;;;;;17.19;66.12;99340.00;7765005;32;40024;-83
2023/10/15 00:12:17;;;;;;;5.95;2.17;;;;;;;17.19;66.02;99350.22;7764982;32;39643;-83
2023/10/15 00:16:33;;;;;;;3.58;1.90;;;;;;;17.31;66.01;99363.34;7765349;32;37647;-83
2023/10/15 00:20:53;;;;;;;4.72;2.25;;;;;;;17.26;66.07;99362.38;7763676;32;37802;-83
2023/10/15 00:25:12;;;;;;;3.42;1.48;;;;;;;17.41;64.69;99354.72;7764195;32;39131;-83
2023/10/15 00:29:29;;;;;;;2.00;1.50;;;;;;;16.70;65.63;99348.44;7764637;32;40603;-83
2023/10/15 00:33:46;;;;;;;9.10;2.30;;;;;;;17.09;64.64;99329.34;7758610;32;37572;-83
2023/10/15 00:38:16;;;;;;;4.45;1.95;;;;;;;17.12;65.09;99301.16;7753806;32;37058;-83
2023/10/15 00:42:33;;;;;;;1.92;1.40;;;;;;;17.34;64.48;99307.59;7740982;32;37897;-83
2023/10/15 00:46:55;;;;;;;1.67;1.45;;;;;;;17.22;64.31;99333.84;7753441;32;39917;-83
2023/10/15 00:51:17;;;;;;;2.07;1.43;;;;;;;17.14;64.20;99329.16;7754363;32;36447;-83
2023/10/15 00:55:35;;;;;;;2.20;1.25;;;;;;;16.53;66.92;99352.00;7761684;32;37524;-83
2023/10/15 00:59:54;;;;;;;1.60;1.10;;;;;;;15.85;67.75;99365.25;7753655;32;38349;-82
2023/10/15 01:04:11;;;;;;;1.42;1.10;;;;;;;15.80;67.58;99351.66;7754383;32;39947;-83
2023/10/15 01:08:38;;;;;;;4.30;1.35;;;;;;;15.93;67.87;99344.41;7753677;32;37708;-83
2023/10/15 01:13:16;;;;;;;1.30;1.20;;;;;;;15.71;68.77;99351.59;7753498;32;37149;-80
2023/10/15 01:17:37;;;;;;;3.95;1.30;;;;;;;15.58;68.53;99361.53;7756089;32;39316;-83
2023/10/15 01:21:57;;;;;;;4.65;1.05;;;;;;;15.89;68.23;99355.25;7763704;32;39970;-84
2023/10/15 01:26:23;;;;;;;2.08;1.30;;;;;;;16.27;67.11;99348.41;7763939;32;38944;-84
2023/10/15 01:30:41;;;;;;;2.45;1.10;;;;;;;15.65;68.23;99350.09;7763951;32;37975;-83
2023/10/15 01:34:59;;;;;;;1.33;0.90;;;;;;;15.75;67.67;99347.13;7757158;32;37233;-82
2023/10/15 01:39:21;;;;;;;1.20;1.00;;;;;;;16.24;66.35;99338.03;7760354;32;38971;-83
2023/10/15 01:43:38;;;;;;;1.25;1.00;;;;;;;16.22;66.48;99340.31;7763600;32;38717;-82
2023/10/15 01:52:43;;;;;;;1.50;1.25;;;;;;;16.24;66.97;99327.03;7737324;32;39696;-84
2023/10/15 01:57:09;;;;;;;1.50;1.00;;;;;;;16.49;66.32;99326.25;7763211;32;39915;-84
2023/10/15 02:01:37;;;;;;;1.37;1.10;;;;;;;16.60;65.74;99335.00;7763927;32;38643;-83
2023/10/15 02:05:54;;;;;;;1.65;0.90;;;;;;;16.82;65.18;99341.50;7763114;32;37033;-83
2023/10/15 02:10:13;;;;;;;1.33;1.00;;;;;;;16.64;64.81;99357.19;7763340;32;40102;-82
2023/10/15 02:14:30;;;;;;;1.25;1.12;;;;;;;16.57;65.15;99367.87;7757726;32;39768;-83
2023/10/15 02:18:47;;;;;;;3.50;1.12;;;;;;;16.54;65.79;99366.59;7763180;32;38685;-84
2023/10/15 02:23:04;;;;;;;1.85;1.10;;;;;;;16.51;65.86;99400.22;8014452;26;36993;-78
2023/10/15 02:27:24;;;;;;;0.90;0.90;;;;;;;16.44;65.25;99414.47;7782504;32;39393;-79
2023/10/15 02:31:46;;;;;;;1.50;1.40;;;;;;;16.46;65.69;99403.12;7763440;32;40742;-74
2023/10/15 02:36:16;;;;;;;1.20;1.10;;;;;;;16.68;65.07;99396.69;7757712;32;37982;-78
2023/10/15 02:40:37;;;;;;;4.72;1.20;;;;;;;16.63;64.37;99405.13;7764856;32;37865;-76
2023/10/15 02:44:53;;;;;;;1.12;1.02;;;;;;;16.36;64.83;99407.00;7764027;32;39322;-77
2023/10/15 02:49:15;;;;;;;3.62;1.20;;;;;;;16.60;64.27;99397.50;7779475;32;38698;-76
2023/10/15 02:53:39;;;;;;;3.08;1.70;;;;;;;16.64;64.86;99398.47;7764494;32;38819;-77
2023/10/15 02:58:00;;;;;;;2.05;1.10;;;;;;;16.67;64.52;99406.87;7778376;32;36984;-77
2023/10/15 03:02:19;;;;;;;2.10;1.25;;;;;;;16.30;65.35;99411.84;7781222;32;39400;-77
2023/10/15 03:06:41;;;;;;;4.55;1.77;;;;;;;16.59;64.37;99409.62;7766287;32;40345;-76
2023/10/15 03:11:13;;;;;;;3.10;1.70;;;;;;;16.29;64.77;99420.41;7772630;32;37631;-77
2023/10/15 03:15:29;;;;;;;2.10;1.40;;;;;;;16.06;65.46;99425.97;7777427;32;36680;-77
2023/10/15 03:19:46;;;;;;;4.03;1.40;;;;;;;16.06;65.49;99439.72;7770672;32;40081;-77
2023/10/15 03:24:05;;;;;;;3.10;1.80;;;;;;;15.98;65.28;99443.25;7793394;32;39998;-77
2023/10/15 03:28:23;;;;;;;4.10;1.55;;;;;;;15.54;65.78;99431.19;7793577;32;37247;-77
2023/10/15 03:32:41;;;;;;;3.90;1.45;;;;;;;15.60;65.65;99413.44;7784588;32;36848;-76
2023/10/15 03:36:58;;;;;;;2.35;1.42;;;;;;;15.67;65.49;99421.25;7766317;32;39010;-77
2023/10/15 03:41:27;;;;;;;4.00;1.65;;;;;;;15.13;66.34;99421.22;7766556;32;39548;-77
2023/10/15 03:45:53;;;;;;;3.10;1.67;;;;;;;15.40;65.04;99428.50;7787219;32;38092;-77
2023/10/15 03:50:10;;;;;;;6.20;1.80;;;;;;;14.90;65.43;99428.59;7783436;32;36783;-77
2023/10/15 03:54:26;;;;;;;8.50;2.37;;;;;;;14.96;65.50;99419.13;7767524;32;40197;-77
2023/10/15 03:58:42;;;;;;;2.90;1.87;;;;;;;15.07;64.55;99428.72;7758709;32;40809;-77
2023/10/15 04:03:18;;;;;;;2.65;1.67;;;;;;;14.82;64.87;99413.69;7779875;32;38622;-77
2023/10/15 04:07:47;;;;;;;4.53;1.98;;;;;;;14.74;65.09;99404.22;7776947;32;37089;-78
2023/10/15 04:12:06;;;;;;;5.00;1.90;;;;;;;14.84;64.70;99378.50;7767081;32;39361;-77
2023/10/15 04:16:25;;;;;;;4.25;1.83;;;;;;;14.58;64.74;99402.94;7766438;32;40349;-78
2023/10/15 04:20:42;;;;;;;3.90;1.85;;;;;;;14.64;64.36;99393.50;7767801;32;36569;-78
2023/10/15 04:24:58;;;;;;;7.82;2.20;;;;;;;14.58;64.04;99409.25;7763415;32;37317;-78
2023/10/15 04:29:18;;;;;;;6.65;2.08;;;;;;;13.71;66.37;99444.66;7769874;32;39348;-78
2023/10/15 04:33:35;;;;;;;4.45;2.05;;;;;;;14.13;65.68;99444.69;7785943;32;39969;-78
2023/10/15 04:37:57;;;;;;;8.60;2.35;;;;;;;14.41;64.30;99439.22;7768699;32;38770;-78
2023/10/15 04:42:21;;;;;;;4.18;2.30;;;;;;;14.19;64.54;99421.53;7775246;32;37205;-78
2023/10/15 04:46:41;;;;;;;2.67;1.83;;;;;;;14.18;64.60;99430.91;7772915;32;39352;-78
2023/10/15 04:51:13;;;;;;;5.22;2.25;;;;;;;14.08;64.75;99436.59;7753579;32;38427;-78
2023/10/15 04:55:30;;;;;;;6.78;2.22;;;;;;;13.83;65.63;99429.63;7778319;32;38455;-78
2023/10/15 04:59:46;;;;;;;3.97;2.10;;;;;;;14.05;64.46;99442.66;7752929;32;37931;-78
2023/10/15 05:04:02;;;;;;;3.80;1.83;;;;;;;13.58;65.63;99450.09;7773354;32;40078;-78
2023/10/15 05:08:20;;;;;;;6.12;2.00;;;;;;;13.75;64.47;99449.53;7774777;32;40738;-78
2023/10/15 05:12:38;;;;;;;4.55;2.42;;;;;;;13.65;64.29;99466.94;7780095;32;38897;-75
2023/10/15 05:16:54;;;;;;;5.30;2.12;;;;;;;13.67;63.89;99464.72;7777015;32;36900;-77
2023/10/15 05:21:13;;;;;;;7.50;2.15;;;;;;;13.74;65.06;99470.62;7775494;32;40058;-77
2023/10/15 05:25:29;;;;;;;5.18;2.47;;;;;;;13.98;63.80;99475.13;7786459;32;39465;-76
2023/10/15 05:29:46;;;;;;;5.43;2.05;;;;;;;14.14;64.07;99481.94;7769795;32;37798;-79
2023/10/15 05:34:03;;;;;;;3.83;1.98;;;;;;;13.87;64.99;99505.47;7786463;32;37153;-79
2023/10/15 05:38:19;;;;;;;7.05;2.05;;;;;;;13.98;63.29;99513.50;7791849;32;39360;-78
2023/10/15 05:42:36;;;;;;;7.90;1.92;;;;;;;14.08;63.48;99518.81;7767247;32;40022;-79
2023/10/15 05:46:52;;;;;;;2.58;1.90;;;;;;;14.06;64.21;99515.56;7764362;32;38376;-79
2023/10/15 05:51:09;;;;;;;5.00;2.40;;;;;;;14.12;62.96;99536.28;7764773;32;37427;-81
2023/10/15 05:55:25;;;;;;;4.35;2.10;;;;;;;14.18;62.67;99554.25;7774672;32;40567;-81
2023/10/15 05:59:43;;;;;;;2.17;1.62;;;;;;;14.13;62.75;99548.88;7769082;32;40623;-79
2023/10/15 06:03:59;;;;;;;4.80;2.30;;;;;;;14.09;62.03;99542.38;7774251;32;37972;-79
2023/10/15 06:08:16;;;;;;;4.15;1.90;;;;;;;14.04;62.57;99556.97;7791330;32;37653;-80
2023/10/15 06:12:32;;;;;;;3.00;1.87;;;;;;;14.04;62.88;99540.53;7791141;32;39428;-80
2023/10/15 06:16:52;;;;;;;7.18;2.50;;;;;;;14.08;62.34;99552.50;7776862;32;39884;-78
2023/10/15 06:21:09;;;;;;;6.80;2.05;;;;;;;13.97;62.58;99536.53;7786859;32;38669;-77
2023/10/15 06:25:25;;;;;;;3.87;2.22;;;;;;;14.07;61.86;99548.16;7763507;32;37859;-77
2023/10/15 06:29:42;;;;;;;9.48;2.60;;;;;;;14.10;61.99;99582.37;7771392;32;39791;-78
2023/10/15 06:33:58;;;;;;;5.28;2.12;;;;;;;14.12;61.19;99579.31;7790453;32;40814;-77
2023/10/15 06:38:17;;;;;;;6.45;2.30;;;;;;;14.06;60.67;99589.56;7780229;32;37511;-76
2023/10/15 06:42:34;;;;;;;19.08;7.20;;;;;;;13.95;61.31;99583.41;7780694;32;38204;-78
2023/10/15 06:46:50;;;;;;;13.57;6.60;;;;;;;13.93;61.14;99604.03;7766889;32;39597;-79
2023/10/15 06:51:07;;;;;;;6.62;3.17;;;;;;;14.23;60.04;99589.81;7781155;32;40769;-77
2023/10/15 06:55:23;;;;;;;8.07;2.78;;;;;;;13.81;61.68;99605.28;7793825;32;38011;-77
2023/10/15 06:59:40;;;;;;;6.47;3.05;;;;;;;14.36;59.25;99574.50;7793889;32;37412;-77
2023/10/15 07:03:56;;;;;;;8.38;2.97;;;;;;;14.16;59.99;99575.69;7792403;32;39069;-80
2023/10/15 07:08:13;;;;;;;16.55;5.85;;;;;;;14.00;61.68;99571.56;7766476;32;39901;-80
2023/10/15 07:12:29;;;;;;;16.62;8.15;;;;;;;14.03;60.85;99562.75;7766320;32;37943;-80
2023/10/15 07:16:45;;;;;;;15.73;10.57;;;;;;;14.34;59.56;99570.44;7766429;32;38108;-80
2023/10/15 07:21:02;;;;;;;10.15;2.83;;;;;;;14.51;58.34;99580.84;7752592;32;39103;-82
2023/10/15 07:25:21;;;;;;;7.03;2.20;;;;;;;14.14;59.68;99588.06;7766102;32;40115;-80
2023/10/15 07:29:39;;;;;;;8.60;3.97;;;;;;;14.35;58.01;99583.84;7752885;32;37606;-82
2023/10/15 07:33:56;;;;;;;9.32;3.25;;;;;;;14.26;59.26;99578.25;7766185;32;37691;-81
2023/10/15 07:38:12;;;;;;;8.05;2.15;;;;;;;14.38;59.04;99561.28;7766202;32;40179;-82
2023/10/15 07:42:29;;;;;;;9.10;2.35;;;;;;;14.50;58.15;99554.50;7772498;32;40689;-82
2023/10/15 07:46:46;;;;;;;6.55;2.22;;;;;;;14.16;58.76;99578.44;7772278;32;37980;-83
2023/10/15 07:51:03;;;;;;;3.92;2.00;;;;;;;14.24;61.14;99599.66;7793217;32;37117;-81
2023/10/15 07:55:23;;;;;;;9.52;2.60;;;;;;;13.75;58.48;99581.84;7793010;32;39499;-81
2023/10/15 07:59:39;;;;;;;7.78;2.22;;;;;;;14.22;58.52;99563.50;7781098;32;40795;-82
2023/10/15 08:03:59;;;;;;;5.05;2.05;;;;;;;14.21;59.10;99583.81;7766162;32;38419;-78
2023/10/15 08:08:15;;;;;;;9.77;2.35;;;;;;;13.88;58.70;99586.56;7765789;32;38007;-78
2023/10/15 08:12:32;;;;;;;9.60;2.25;;;;;;;13.95;58.30;99591.63;7765913;32;39044;-77
2023/10/15 08:16:48;;;;;;;3.65;1.90;;;;;;;14.41;58.08;99599.09;7765947;32;40023;-77
2023/10/15 08:21:05;;;;;;;8.45;2.67;;;;;;;14.50;59.00;99580.00;7765664;32;38715;-77
2023/10/15 08:25:22;;;;;;;5.45;2.00;;;;;;;14.71;58.24;99585.97;7765580;32;37587;-81
2023/10/15 08:29:39;;;;;;;7.75;2.17;;;;;;;14.49;57.85;99589.34;7789058;32;38940;-82
2023/10/15 08:33:55;;;;;;;7.55;2.15;;;;;;;14.53;56.44;99578.59;7777308;32;40932;-83
2023/10/15 08:38:12;;;;;;;7.60;2.17;;;;;;;14.78;58.04;99582.78;7765366;32;38709;-85
2023/10/15 08:42:30;;;;;;;3.92;2.03;;;;;;;14.72;57.31;99595.81;7765545;32;37246;-82
2023/10/15 08:46:47;;;;;;;7.30;2.00;;;;;;;14.37;56.67;99600.81;7785790;32;39380;-82
2023/10/15 08:51:04;;;;;;;6.35;1.80;;;;;;;14.59;56.87;99585.62;7778533;32;39895;-80
2023/10/15 08:55:22;;;;;;;10.55;2.75;;;;;;;14.62;55.62;99587.75;7780432;32;37855;-82
2023/10/15 08:59:40;;;;;;;9.02;2.22;;;;;;;14.76;55.49;99585.03;7790401;32;36432;-81
2023/10/15 09:03:57;;;;;;;5.78;2.50;;;;;;;14.76;55.57;99594.09;7773680;32;40908;-83
2023/10/15 09:08:14;;;;;;;4.60;1.90;;;;;;;14.56;55.64;99589.78;7772940;32;40948;-82
2023/10/15 09:12:31;;;;;;;8.45;2.08;;;;;;;14.80;54.50;99588.81;7778343;32;37918;-83
2023/10/15 09:16:47;;;;;;;15.57;2.10;;;;;;;15.13;54.07;99580.44;7792032;32;37870;-83
2023/10/15 09:21:04;;;;;;;5.22;1.95;;;;;;;15.35;52.70;99566.78;7779473;32;38977;-81
2023/10/15 09:25:22;;;;;;;7.90;2.25;;;;;;;15.64;51.51;99567.50;7763545;32;40729;-82
2023/10/15 09:29:39;;;;;;;3.40;1.60;;;;;;;15.53;51.24;99575.16;7782042;32;38009;-82
2023/10/15 09:33:55;;;;;;;4.93;2.22;;;;;;;15.57;49.01;99578.91;7756108;32;318413;-82
2023/10/15 09:38:14;;;;;;;5.50;2.35;;;;;;;15.52;48.80;99573.53;7764697;32;40115;-82
2023/10/15 09:42:33;;;;;;;6.65;2.10;;;;;;;15.65;48.83;99569.94;7764717;32;40831;-82
2023/10/15 09:46:50;;;;;;;4.95;1.90;;;;;;;15.30;49.01;99586.12;7751151;32;37556;-81
2023/10/15 09:51:09;;;;;;;12.70;2.10;;;;;;;15.36;48.25;99581.31;7764571;32;37257;-82
2023/10/15 09:55:27;;;;;;;6.07;2.10;;;;;;;15.52;48.95;99566.13;7764465;32;39013;-82
2023/10/15 09:59:49;;;;;;;8.48;2.80;;;;;;;15.21;48.48;99579.69;7764329;32;40780;-82
2023/10/15 10:04:23;;;;;;;6.12;2.08;;;;;;;15.65;50.33;99577.38;7764102;32;38159;-82
2023/10/15 10:09:01;;;;;;;4.75;1.92;;;;;;;15.56;47.04;99572.59;7783800;32;36946;-80
2023/10/15 10:13:52;;;;;;;5.72;2.05;;;;;;;15.52;46.71;99566.13;7789112;32;39817;-80
2023/10/15 10:18:11;;;;;;;6.62;2.35;;;;;;;15.74;46.97;99562.56;7765056;32;40109;-82
2023/10/15 10:22:29;;;;;;;4.43;1.70;;;;;;;16.05;46.15;99550.84;7770072;32;38542;-82
2023/10/15 10:26:54;;;;;;;12.98;2.67;;;;;;;15.88;46.44;99554.28;7790170;32;37975;-81
2023/10/15 10:31:14;;;;;;;5.55;1.80;;;;;;;16.01;45.67;99562.78;7778064;32;38044;-79
2023/10/15 10:35:47;;;;;;;8.55;2.15;;;;;;;15.64;45.05;99564.75;7790483;32;40046;-78
2023/10/15 10:40:45;;;;;;;6.72;2.55;;;;;;;15.27;45.21;99553.75;7790435;32;37979;-79
2023/10/15 10:45:02;;;;;;;6.75;1.90;;;;;;;15.85;45.20;99554.09;7775108;32;36771;-79
2023/10/15 10:49:34;;;;;;;3.87;1.77;;;;;;;15.31;44.45;99557.50;7787120;32;39913;-76
2023/10/15 10:53:57;;;;;;;6.00;2.17;;;;;;;15.02;45.10;99569.69;7749782;32;39984;-79
2023/10/15 10:58:34;;;;;;;6.93;2.00;;;;;;;15.19;43.90;99577.28;7762637;32;37926;-79
2023/10/15 11:02:51;;;;;;;3.87;1.87;;;;;;;14.87;44.21;99583.72;7759973;32;36664;-78
2023/10/15 11:07:09;;;;;;;4.22;1.77;;;;;;;14.62;42.75;99594.06;7748654;32;38999;-78
2023/10/15 11:11:25;;;;;;;4.05;1.98;;;;;;;14.81;41.78;99584.94;7789797;32;39965;-79
2023/10/15 11:15:49;;;;;;;11.30;2.20;;;;;;;14.47;42.83;99594.34;7770321;32;37573;-78
2023/10/15 11:20:06;;;;;;;3.17;1.67;;;;;;;14.79;42.00;99598.16;7762930;32;37110;-78
2023/10/15 11:24:24;;;;;;;7.10;2.00;;;;;;;14.58;42.16;99586.72;7767162;32;40087;-81
2023/10/15 11:28:41;;;;;;;6.80;2.00;;;;;;;14.92;41.88;99580.88;7791259;32;38985;-81
2023/10/15 11:32:59;;;;;;;7.18;2.50;;;;;;;14.84;42.87;99576.91;7766127;32;38701;-79
2023/10/15 11:37:16;;;;;;;6.60;2.25;;;;;;;14.92;43.44;99575.38;7766225;32;37465;-76
2023/10/15 11:41:34;;;;;;;8.43;3.12;;;;;;;15.05;44.08;99562.75;7766231;32;40037;-82
2023/10/15 11:45:52;;;;;;;6.72;2.03;;;;;;;15.28;53.19;99560.91;7766224;32;40119;-77
2023/10/15 11:50:14;;;;;;;6.28;2.08;;;;;;;15.55;44.77;99546.25;7766184;32;37675;-78
2023/10/15 11:54:35;;;;;;;3.75;1.90;;;;;;;15.56;42.94;99560.81;7766259;32;37867;-78
2023/10/15 11:58:52;;;;;;;4.80;1.83;;;;;;;15.51;44.71;99559.00;7766021;32;39453;-78
2023/10/15 12:03:09;;;;;;;4.53;2.08;;;;;;;15.29;44.38;99556.22;7765804;32;40052;-78
2023/10/15 12:07:28;;;;;;;9.98;2.15;;;;;;;15.42;42.13;99565.53;7752068;32;37953;-78
2023/10/15 12:11:46;;;;;;;8.75;1.73;;;;;;;15.57;42.45;99577.00;7752291;32;37964;-76
2023/10/15 12:16:02;;;;;;;6.18;2.08;;;;;;;15.43;42.92;99583.63;7751837;32;39301;-76
2023/10/15 12:20:19;;;;;;;4.10;1.98;;;;;;;15.55;42.81;99603.13;7765572;32;39956;-76
2023/10/15 12:24:36;;;;;;;3.85;1.77;;;;;;;15.21;42.99;99598.91;7768168;32;38494;-77
2023/10/15 12:28:53;;;;;;;10.02;2.17;;;;;;;14.82;42.77;99605.78;7765720;32;37386;-77
2023/10/15 12:33:15;;;;;;;3.50;1.73;;;;;;;14.57;43.41;99599.63;7764839;32;39088;-77
2023/10/15 12:37:32;;;;;;;3.28;1.65;;;;;;;14.58;43.25;99581.25;7752281;32;39796;-79
2023/10/15 12:41:50;;;;;;;5.87;2.00;;;;;;;14.60;44.19;99573.53;7765560;32;38835;-79
2023/10/15 12:46:07;;;;;;;2.70;1.60;;;;;;;14.61;44.56;99581.47;7782446;32;37289;-84
2023/10/15 12:50:24;;;;;;;6.53;2.30;;;;;;;14.21;43.81;99611.25;7792563;32;39769;-82
2023/10/15 12:54:41;;;;;;;6.45;1.90;;;;;;;13.95;44.51;99602.59;7792313;32;39877;-82
2023/10/15 12:58:58;;;;;;;9.25;1.83;;;;;;;14.01;44.98;99617.06;7786187;32;38724;-81
2023/10/15 13:03:15;;;;;;;5.80;2.00;;;;;;;14.27;43.93;99604.53;7777963;32;38059;-82
2023/10/15 13:07:32;;;;;;;2.72;1.37;;;;;;;14.00;45.20;99640.09;7764912;32;39909;-82
2023/10/15 13:11:48;;;;;;;5.65;1.73;;;;;;;14.06;45.18;99620.53;7775015;32;39873;-81
2023/10/15 13:16:08;;;;;;;5.60;1.80;;;;;;;14.29;44.36;99623.44;7791033;32;37843;-82
2023/10/15 13:20:24;;;;;;;4.93;1.67;;;;;;;14.52;44.18;99601.62;7792320;32;36803;-82
2023/10/15 13:24:41;;;;;;;4.72;1.60;;;;;;;14.62;44.60;99613.25;7790474;32;40142;-82
2023/10/15 13:28:57;;;;;;;6.20;1.60;;;;;;;14.40;43.91;99605.69;7785800;32;39966;-82
2023/10/15 13:33:14;;;;;;;4.90;1.70;;;;;;;14.49;45.02;99589.34;7765092;32;38480;-82
2023/10/15 13:37:30;;;;;;;8.05;2.10;;;;;;;14.39;44.67;99590.34;7784319;32;36915;-82
2023/10/15 13:41:47;;;;;;;7.57;1.92;;;;;;;14.17;44.75;99604.72;7791716;32;39384;-82
2023/10/15 13:46:06;;;;;;;6.07;2.12;;;;;;;14.08;45.30;99612.00;7791805;32;40003;-82
2023/10/15 13:50:23;;;;;;;5.18;2.00;;;;;;;14.23;44.48;99609.00;7791786;32;38835;-82
2023/10/15 13:54:39;;;;;;;4.05;1.80;;;;;;;14.25;44.81;99601.28;7791670;32;37129;-82
2023/10/15 13:58:58;;;;;;;6.87;1.62;;;;;;;14.09;44.87;99599.94;7791723;32;39033;-81
2023/10/15 14:03:15;;;;;;;9.73;1.62;;;;;;;13.90;44.96;99606.25;7784782;32;40685;-82
2023/10/15 14:07:32;;;;;;;7.30;1.95;;;;;;;14.40;44.91;99613.09;7764121;32;38503;-82
2023/10/15 14:11:49;;;;;;;7.78;1.75;;;;;;;14.32;44.46;99614.63;7764178;32;37091;-82
2023/10/15 14:16:06;;;;;;;6.15;1.83;;;;;;;14.09;45.22;99608.97;7764021;32;39428;-83
2023/10/15 14:20:22;;;;;;;10.07;2.28;;;;;;;14.06;44.43;99603.28;7763842;32;40637;-83
2023/10/15 14:24:39;;;;;;;7.43;2.33;;;;;;;14.22;45.26;99585.44;7763141;32;37965;-82
2023/10/15 14:28:55;;;;;;;7.35;2.00;;;;;;;14.48;44.78;99598.69;7777090;32;37379;-83
2023/10/15 14:33:12;;;;;;;7.70;2.20;;;;;;;14.21;44.94;99605.75;7790846;32;39283;-83
2023/10/15 14:37:30;;;;;;;5.37;1.75;;;;;;;14.25;45.24;99614.19;7790617;32;40012;-83
2023/10/15 14:41:48;;;;;;;6.97;2.45;;;;;;;13.96;44.46;99617.94;7790451;32;39313;-83
2023/10/15 14:46:05;;;;;;;5.53;2.08;;;;;;;14.10;45.29;99609.78;7790513;32;38314;-83
2023/10/15 14:50:22;;;;;;;7.87;1.90;;;;;;;13.95;46.34;99601.78;7790463;32;39114;-83
2023/10/15 14:54:38;;;;;;;4.50;2.10;;;;;;;14.25;44.73;99600.47;7768454;32;40605;-83
2023/10/15 14:58:55;;;;;;;9.18;2.12;;;;;;;14.05;45.55;99591.47;7766812;32;37867;-83
2023/10/15 15:03:11;;;;;;;6.60;1.75;;;;;;;14.17;45.29;99585.53;7766760;32;37101;-82
2023/10/15 15:07:27;;;;;;;6.80;2.05;;;;;;;14.09;45.91;99580.75;7766592;32;40170;-83
2023/10/15 15:11:44;;;;;;;8.93;2.70;;;;;;;14.56;44.76;99578.78;7767497;32;39612;-83
2023/10/15 15:16:00;;;;;;;8.20;2.28;;;;;;;13.90;45.33;99600.78;7766455;32;38048;-83
2023/10/15 15:20:21;;;;;;;8.40;2.67;;;;;;;13.83;45.21;99607.72;7766620;32;38935;-83
2023/10/15 15:24:38;;;;;;;7.47;2.78;;;;;;;13.99;44.97;99624.78;7766509;32;39402;-84
2023/10/15 15:28:54;;;;;;;5.15;2.55;;;;;;;13.82;45.79;99614.34;7781110;32;39951;-83
2023/10/15 15:33:12;;;;;;;5.72;2.60;;;;;;;13.95;46.29;99610.03;7772199;32;39461;-83
2023/10/15 15:37:30;;;;;;;6.82;2.67;;;;;;;13.75;46.30;99601.00;7793425;32;36446;-84
2023/10/15 15:41:46;;;;;;;8.25;2.70;;;;;;;13.61;46.45;99605.63;7793444;32;39912;-83
2023/10/15 15:46:08;;;;;;;6.18;2.42;;;;;;;13.23;47.32;99620.06;7783011;32;39938;-83
2023/10/15 15:50:25;;;;;;;6.85;2.50;;;;;;;13.23;47.19;99619.22;7766007;32;38082;-83
2023/10/15 15:54:42;;;;;;;9.02;2.83;;;;;;;13.23;47.15;99613.75;7752062;32;38837;-84
2023/10/15 15:58:58;;;;;;;5.50;2.30;;;;;;;13.24;47.37;99618.13;7763077;32;40157;-82
2023/10/15 16:03:15;;;;;;;7.03;2.50;;;;;;;13.40;47.42;99613.28;7779038;32;39927;-83
2023/10/15 16:07:32;;;;;;;9.82;3.00;;;;;;;13.17;47.40;99606.72;7784779;32;37795;-84
2023/10/15 16:11:48;;;;;;;8.88;3.20;;;;;;;13.34;48.11;99590.66;7782862;32;37136;-82
2023/10/15 16:16:05;;;;;;;4.15;2.55;;;;;;;13.48;47.82;99593.47;7769002;32;40098;-85
2023/10/15 16:20:24;;;;;;;5.78;2.30;;;;;;;13.34;48.94;99605.16;7781127;32;39896;-83
2023/10/15 16:24:44;;;;;;;4.80;1.92;;;;;;;13.36;48.18;99617.75;7789679;32;38469;-84
2023/10/15 16:29:11;;;;;;;5.90;2.33;;;;;;;13.47;48.27;99614.56;7765912;32;37061;-83
2023/10/15 16:33:28;;;;;;;6.68;2.33;;;;;;;13.30;48.91;99630.66;7770116;32;40187;-83
2023/10/15 16:37:44;;;;;;;6.07;2.20;;;;;;;13.04;48.53;99687.59;7782492;32;40870;-83
2023/10/15 16:42:01;;;;;;;6.95;2.53;;;;;;;12.34;49.81;99706.03;7789996;32;37904;-83
2023/10/15 16:46:17;;;;;;;10.05;3.08;;;;;;;12.71;49.36;99709.28;7772603;32;37792;-83
2023/10/15 16:50:34;;;;;;;11.75;5.00;;;;;;;12.54;50.90;99720.66;7791180;32;39504;-83
2023/10/15 16:54:51;;;;;;;16.90;5.20;;;;;;;12.39;50.52;99744.28;7792425;32;39754;-82
2023/10/15 16:59:07;;;;;;;8.38;3.50;;;;;;;12.10;50.74;99735.19;7792302;32;38692;-82
2023/10/15 17:03:24;;;;;;;5.82;2.60;;;;;;;12.28;50.05;99726.34;7792432;32;36814;-80
2023/10/15 17:07:41;;;;;;;6.03;3.00;;;;;;;12.26;50.24;99744.91;7785265;32;39337;-78
2023/10/15 17:11:58;;;;;;;5.03;2.80;;;;;;;12.33;49.80;99737.22;7769324;32;40754;-79
2023/10/15 17:16:14;;;;;;;9.45;3.05;;;;;;;12.52;49.63;99742.00;7791428;32;37722;-78
2023/10/15 17:20:30;;;;;;;7.05;2.80;;;;;;;12.69;49.60;99756.06;7781552;32;37351;-79
2023/10/15 17:24:47;;;;;;;7.37;3.00;;;;;;;12.45;50.00;99757.91;7775695;32;39327;-78
2023/10/15 17:29:05;;;;;;;8.18;3.17;;;;;;;12.59;50.51;99737.84;7772483;32;40048;-79
2023/10/15 17:33:22;;;;;;;6.00;2.90;;;;;;;12.46;50.68;99749.44;7764784;32;37625;-79
2023/10/15 17:37:38;;;;;;;11.10;4.85;;;;;;;12.32;49.80;99754.72;7778787;32;36840;-78
2023/10/15 17:41:59;;;;;;;7.53;3.12;;;;;;;12.15;49.89;99773.44;7763784;32;39433;-79
2023/10/15 17:46:15;;;;;;;8.55;2.92;;;;;;;12.24;49.62;99776.38;7763484;32;39927;-78
2023/10/15 17:50:32;;;;;;;7.60;2.70;;;;;;;12.17;49.67;99795.81;7764562;32;38503;-79
2023/10/15 17:54:48;;;;;;;6.25;3.05;;;;;;;11.35;50.93;99790.66;7768264;32;37807;-79
2023/10/15 17:59:05;;;;;;;10.35;3.75;;;;;;;11.72;50.08;99781.25;7765075;32;38916;-78
2023/10/15 18:03:21;;;;;;;9.93;4.22;;;;;;;11.48;50.39;99781.06;7751882;32;40789;-79
2023/10/15 18:07:38;;;;;;;8.23;4.12;;;;;;;11.71;50.10;99802.31;7759886;32;37653;-77
2023/10/15 18:11:55;;;;;;;10.70;4.10;;;;;;;11.83;50.48;99805.53;7763192;32;37028;-80
2023/10/15 18:16:14;;;;;;;9.80;4.00;;;;;;;11.87;50.62;99802.25;7763132;32;39295;-80
2023/10/15 18:20:31;;;;;;;11.25;3.78;;;;;;;11.94;50.64;99816.44;7766379;32;42316;-78
2023/10/15 18:24:48;;;;;;;10.00;4.57;;;;;;;11.79;50.62;99822.75;7766252;32;38633;-79
2023/10/15 18:29:04;;;;;;;11.55;4.37;;;;;;;11.96;50.37;99822.44;7779678;32;37417;-79
2023/10/15 18:33:21;;;;;;;7.82;4.43;;;;;;;11.76;51.15;99826.03;7786943;32;39378;-79
2023/10/15 18:37:38;;;;;;;9.85;4.80;;;;;;;11.68;51.67;99834.81;7782615;32;40488;-79
2023/10/15 18:41:54;;;;;;;19.33;9.20;;;;;;;11.40;52.91;99843.34;7777201;32;38458;-78
2023/10/15 18:46:11;;;;;;;13.95;7.50;;;;;;;11.58;52.57;99852.03;7786875;32;38235;-77
2023/10/15 18:50:28;;;;;;;18.37;9.02;;;;;;;11.43;52.89;99866.53;7779686;32;39788;-78
2023/10/15 18:54:44;;;;;;;11.77;6.10;;;;;;;11.26;53.17;99875.84;7754949;32;39750;-79
2023/10/15 18:59:02;;;;;;;15.05;5.40;;;;;;;11.51;52.62;99876.09;7778056;32;38609;-80
2023/10/15 19:03:19;;;;;;;9.15;4.45;;;;;;;11.30;53.63;99886.19;7765817;32;37487;-80
2023/10/15 19:07:35;;;;;;;18.25;4.43;;;;;;;11.48;53.05;99877.44;7781522;32;40276;-79
2023/10/15 19:11:52;;;;;;;11.15;4.68;;;;;;;11.40;53.59;99887.00;7779745;32;40623;-79
2023/10/15 19:16:09;;;;;;;9.07;4.37;;;;;;;11.45;53.71;99883.44;7781424;32;38712;-79
2023/10/15 19:20:25;;;;;;;8.85;4.32;;;;;;;11.48;53.40;99884.81;7781372;32;37021;-78
2023/10/15 19:24:42;;;;;;;17.10;7.35;;;;;;;11.43;53.46;99891.94;7788195;32;39857;-79
2023/10/15 19:28:58;;;;;;;9.73;5.50;;;;;;;11.11;54.13;99894.09;7758582;32;39757;-77
2023/10/15 19:33:15;;;;;;;9.57;5.05;;;;;;;11.11;54.00;99889.50;7768777;32;37778;-78
2023/10/15 19:37:32;;;;;;;16.23;7.32;;;;;;;11.12;54.08;99896.56;7776337;32;37000;-78
2023/10/15 19:41:48;;;;;;;16.70;6.82;;;;;;;11.15;53.67;99906.94;7775567;32;40147;-78
2023/10/15 19:46:07;;;;;;;34.08;13.73;;;;;;;10.83;54.65;99913.47;7764954;32;40161;-79
2023/10/15 19:50:24;;;;;;;9.27;4.53;;;;;;;11.17;53.95;99912.94;7766680;32;37977;-78
2023/10/15 19:54:44;;;;;;;10.20;5.25;;;;;;;11.16;54.50;99935.88;7768201;32;37319;-78
2023/10/15 19:59:01;;;;;;;9.77;4.15;;;;;;;11.22;54.37;99940.22;7765205;32;39332;-78
2023/10/15 20:03:18;;;;;;;8.35;4.15;;;;;;;11.19;54.58;99942.69;7764509;32;39510;-79
2023/10/15 20:07:37;;;;;;;16.70;5.82;;;;;;;11.32;54.16;99944.06;7771433;32;38699;-78
2023/10/15 20:11:53;;;;;;;13.50;5.15;;;;;;;11.01;53.55;99949.50;7773209;32;36672;-78
2023/10/15 20:16:10;;;;;;;9.15;4.57;;;;;;;11.01;53.21;99953.03;7774123;32;40078;-79
2023/10/15 20:20:27;;;;;;;7.12;4.00;;;;;;;10.90;53.19;99963.13;7775532;32;38130;-78